Time;durP1;ratioP1;P1;durP2;ratioP2;P2;SDS_P1;SDS_P2;PMS_P1;PMS_P2;Temp;Humidity;BMP_temperature;BMP_pressure;BME280_temperature;BME280_humidity;BME280_pressure;Samples;Min_cycle;Max_cycle;Signal;HPM_P1;HPM_P2
2022/04/06 00:00:43;;;;;;;26.35;13.52;;;8.70;99.90;;;;;;5034280;28;20038;-75
2022/04/06 00:03:09;;;;;;;31.67;15.65;;;8.70;99.90;;;;;;5034397;28;20072;-76
2022/04/06 00:05:35;;;;;;;31.90;14.57;;;8.70;99.90;;;;;;5034222;28;20048;-76
2022/04/06 00:08:01;;;;;;;28.65;13.63;;;8.70;99.90;;;;;;5034232;28;20053;-76
2022/04/06 00:10:28;;;;;;;27.92;13.40;;;8.70;99.90;;;;;;5016371;28;20084;-77
2022/04/06 00:12:54;;;;;;;30.38;13.43;;;8.70;99.90;;;;;;5034034;28;20060;-77
2022/04/06 00:15:20;;;;;;;33.70;15.13;;;8.70;99.90;;;;;;5034408;28;20057;-77
2022/04/06 00:17:46;;;;;;;28.42;13.05;;;8.70;99.90;;;;;;5033948;28;20292;-76
2022/04/06 00:20:13;;;;;;;26.77;12.90;;;8.70;99.90;;;;;;5033982;28;20038;-76
2022/04/06 00:22:39;;;;;;;28.48;13.30;;;8.70;99.90;;;;;;5033914;28;20394;-76
2022/04/06 00:25:05;;;;;;;;;;;8.70;99.90;;;;;;5034244;28;20056;-76
2022/04/06 00:27:31;;;;;;;26.38;13.50;;;8.70;99.90;;;;;;5034073;28;19921;-77
2022/04/06 00:29:56;;;;;;;26.50;12.35;;;8.70;99.90;;;;;;5033738;28;20056;-76
2022/04/06 00:32:22;;;;;;;25.00;11.48;;;8.70;99.90;;;;;;5016563;28;20045;-77
2022/04/06 00:37:31;;;;;;;26.45;11.60;;;8.70;99.90;;;;;;5033553;28;20049;-77
2022/04/06 00:39:57;;;;;;;24.20;12.77;;;8.70;99.90;;;;;;5033714;28;20462;-76
2022/04/06 00:42:22;;;;;;;28.30;12.70;;;8.70;99.90;;;;;;5033704;28;20183;-76
2022/04/06 00:44:48;;;;;;;28.15;12.70;;;8.70;99.90;;;;;;5033632;28;20081;-76
2022/04/06 00:47:13;;;;;;;26.65;12.00;;;8.70;99.90;;;;;;5033634;28;20053;-77
2022/04/06 00:49:39;;;;;;;29.08;12.95;;;8.70;99.90;;;;;;5033504;28;20432;-77
2022/04/06 00:52:06;;;;;;;25.45;12.75;;;8.70;99.90;;;;;;5033513;28;20129;-76
2022/04/06 00:54:33;;;;;;;24.55;11.98;;;8.70;99.90;;;;;;5033735;28;20037;-77
2022/04/06 00:56:59;;;;;;;33.10;12.50;;;8.60;99.90;;;;;;5033868;28;20081;-76
2022/04/06 00:59:28;;;;;;;25.10;11.90;;;8.70;99.90;;;;;;5033346;28;20512;-76
2022/04/06 01:01:55;;;;;;;27.20;11.13;;;8.70;99.90;;;;;;5033415;28;20087;-77
2022/04/06 01:04:21;;;;;;;24.00;11.05;;;8.70;99.90;;;;;;5033461;28;20046;-76
2022/04/06 01:06:48;;;;;;;27.30;11.55;;;8.70;99.90;;;;;;5033356;28;20531;-77
2022/04/06 01:09:18;;;;;;;24.33;11.65;;;8.70;99.90;;;;;;5033155;28;20099;-76
2022/04/06 01:11:45;;;;;;;25.58;11.70;;;8.60;99.90;;;;;;5016482;28;20129;-77
2022/04/06 01:14:11;;;;;;;;;;;8.60;99.90;;;;;;5033778;28;20445;-76
2022/04/06 01:16:37;;;;;;;22.45;10.63;;;8.70;99.90;;;;;;5033515;28;19983;-77
2022/04/06 01:19:03;;;;;;;19.67;9.88;;;8.70;99.90;;;;;;5033338;28;20371;-77
2022/04/06 01:21:29;;;;;;;31.27;10.63;;;8.70;99.90;;;;;;5033104;28;20057;-76
2022/04/06 01:23:55;;;;;;;18.92;10.45;;;8.70;99.90;;;;;;5016335;28;20068;-76
2022/04/06 01:26:20;;;;;;;22.73;11.02;;;8.70;99.90;;;;;;5037189;28;20045;-76
2022/04/06 01:28:46;;;;;;;22.45;10.38;;;8.70;99.90;;;;;;5037172;28;20044;-76
2022/04/06 01:31:12;;;;;;;22.30;9.85;;;8.70;99.90;;;;;;5036743;28;20053;-76
2022/04/06 01:33:38;;;;;;;21.27;10.02;;;8.60;99.90;;;;;;5036753;28;20045;-76
2022/04/06 01:36:04;;;;;;;23.67;9.75;;;8.60;99.90;;;;;;5037086;28;20088;-77
2022/04/06 01:38:29;;;;;;;29.60;10.82;;;8.70;99.90;;;;;;5037015;28;20049;-76
2022/04/06 01:40:55;;;;;;;30.05;11.30;;;8.60;99.90;;;;;;5037515;28;20037;-77
2022/04/06 01:43:21;;;;;;;26.83;9.88;;;8.60;99.90;;;;;;5037144;28;20469;-77
2022/04/06 01:45:47;;;;;;;26.42;9.98;;;8.60;99.90;;;;;;5036835;28;20068;-76
2022/04/06 01:48:16;;;;;;;24.58;9.43;;;8.60;99.90;;;;;;5036924;28;20042;-77
2022/04/06 01:53:28;;;;;;;25.05;10.48;;;8.60;99.90;;;;;;5019124;28;20417;-77
2022/04/06 01:55:54;;;;;;;19.30;9.18;;;8.60;99.90;;;;;;5036675;28;20049;-76
2022/04/06 01:58:20;;;;;;;23.42;8.70;;;8.60;99.90;;;;;;5036565;28;20089;-76
2022/04/06 02:00:47;;;;;;;21.05;9.18;;;8.60;99.90;;;;;;5036577;28;20034;-77
2022/04/06 02:03:12;;;;;;;28.75;9.55;;;8.60;99.90;;;;;;5036459;28;20049;-76
2022/04/06 02:05:38;;;;;;;21.98;9.43;;;8.60;99.90;;;;;;5018824;28;20042;-76
2022/04/06 02:08:04;;;;;;;20.30;9.20;;;8.30;99.90;;;;;;5018848;28;20046;-76
2022/04/06 02:10:30;;;;;;;23.73;8.55;;;8.60;99.90;;;;;;5036638;28;20111;-76
2022/04/06 02:12:57;;;;;;;22.75;9.07;;;8.60;99.90;;;;;;5036315;28;20382;-76
2022/04/06 02:15:23;;;;;;;;;;;8.60;99.90;;;;;;5036735;28;20045;-77
2022/04/06 02:17:49;;;;;;;20.42;7.80;;;8.60;99.90;;;;;;5036192;28;19921;-77
2022/04/06 02:20:14;;;;;;;20.20;7.32;;;8.60;99.90;;;;;;5036492;28;20168;-77
2022/04/06 02:22:41;;;;;;;18.83;7.63;;;8.50;99.90;;;;;;5036179;28;20048;-77
2022/04/06 02:25:07;;;;;;;21.02;7.32;;;8.60;99.90;;;;;;5036147;28;20038;-76
2022/04/06 02:27:33;;;;;;;19.67;8.03;;;8.60;99.90;;;;;;5036074;28;20051;-77
2022/04/06 02:29:58;;;;;;;21.55;7.22;;;8.60;99.90;;;;;;5035623;28;20308;-76
2022/04/06 02:32:24;;;;;;;21.38;7.20;;;8.60;99.90;;;;;;5035848;28;20057;-77
2022/04/06 02:34:50;;;;;;;18.90;6.75;;;8.60;99.90;;;;;;5018388;28;20039;-76
2022/04/06 02:37:16;;;;;;;24.60;7.10;;;8.60;99.90;;;;;;5035130;28;20046;-77
2022/04/06 02:39:41;;;;;;;17.45;6.82;;;8.60;99.90;;;;;;5036242;28;20037;-76
2022/04/06 02:42:07;;;;;;;25.65;7.50;;;8.50;99.90;;;;;;5036069;28;20052;-77
2022/04/06 02:44:33;;;;;;;21.20;6.82;;;8.60;99.90;;;;;;5036042;28;20041;-76
2022/04/06 02:46:59;;;;;;;18.75;7.70;;;8.60;99.90;;;;;;5035889;28;20049;-75
2022/04/06 02:49:25;;;;;;;14.95;6.65;;;8.60;99.90;;;;;;5035741;28;20076;-76
2022/04/06 02:51:51;;;;;;;20.50;7.07;;;;;;;;;;5035817;28;20477;-76
2022/04/06 02:54:16;;;;;;;16.08;5.78;;;8.60;99.90;;;;;;5035816;28;20106;-77
2022/04/06 02:56:42;;;;;;;15.88;6.55;;;8.60;99.90;;;;;;5034751;28;20143;-76
2022/04/06 02:59:08;;;;;;;21.08;6.55;;;8.60;99.90;;;;;;5035608;28;20050;-76
2022/04/06 03:01:34;;;;;;;22.35;6.80;;;8.60;99.90;;;;;;5035605;28;20060;-76
2022/04/06 03:03:59;;;;;;;20.58;6.57;;;8.60;99.90;;;;;;5035429;28;20050;-77
2022/04/06 03:06:25;;;;;;;17.92;6.65;;;8.60;99.90;;;;;;5035541;28;20141;-77
2022/04/06 03:08:50;;;;;;;21.73;6.97;;;8.60;99.90;;;;;;5035396;28;20080;-76
2022/04/06 03:11:16;;;;;;;17.17;7.35;;;8.60;99.90;;;;;;5035464;28;20045;-77
2022/04/06 03:13:42;;;;;;;21.25;7.97;;;8.60;99.90;;;;;;5035282;28;20048;-76
2022/04/06 03:16:07;;;;;;;15.75;7.03;;;8.60;99.90;;;;;;5035371;28;20049;-77
2022/04/06 03:18:33;;;;;;;24.85;8.43;;;8.60;99.90;;;;;;5034128;28;20045;-76
2022/04/06 03:20:59;;;;;;;27.33;7.63;;;8.60;99.90;;;;;;5017889;28;20207;-77
2022/04/06 03:23:24;;;;;;;27.75;9.43;;;8.60;99.90;;;;;;5035051;28;20080;-77
2022/04/06 03:25:50;;;;;;;23.88;8.80;;;8.60;99.90;;;;;;5035441;28;20045;-76
2022/04/06 03:28:16;;;;;;;19.42;9.05;;;8.60;99.90;;;;;;5035338;28;20073;-76
2022/04/06 03:30:42;;;;;;;24.70;10.50;;;8.60;99.90;;;;;;5035057;28;20112;-76
2022/04/06 03:33:09;;;;;;;25.60;8.98;;;8.70;99.90;;;;;;5034942;28;20096;-77
2022/04/06 03:35:35;;;;;;;30.33;10.60;;;8.70;99.90;;;;;;5034947;28;20056;-76
2022/04/06 03:38:01;;;;;;;22.63;9.55;;;8.70;99.90;;;;;;5034950;28;20444;-76
2022/04/06 03:40:28;;;;;;;21.73;10.82;;;8.70;99.90;;;;;;5034877;28;20081;-76
2022/04/06 03:42:54;;;;;;;31.83;11.15;;;8.70;99.90;;;;;;5034821;28;20103;-77
2022/04/06 03:45:20;;;;;;;23.80;10.85;;;8.70;99.90;;;;;;5034635;28;20053;-76
2022/04/06 03:47:46;;;;;;;27.63;10.57;;;8.70;99.90;;;;;;5034095;28;20057;-77
2022/04/06 03:50:11;;;;;;;23.40;11.48;;;8.70;99.90;;;;;;5034596;28;20041;-76
2022/04/06 03:52:38;;;;;;;33.33;11.10;;;8.70;99.90;;;;;;5034460;28;20545;-76
2022/04/06 03:55:05;;;;;;;24.13;11.07;;;8.70;99.90;;;;;;5034575;28;20588;-76
2022/04/06 03:57:31;;;;;;;27.77;11.80;;;8.70;99.90;;;;;;5034747;28;20049;-76
2022/04/06 03:59:56;;;;;;;25.35;12.23;;;8.70;99.90;;;;;;5034357;28;20037;-76
2022/04/06 04:02:22;;;;;;;28.85;11.32;;;8.80;99.90;;;;;;5034424;28;20485;-76
2022/04/06 04:04:48;;;;;;;22.90;11.15;;;8.70;99.90;;;;;;5034448;28;20389;-76
2022/04/06 04:07:20;;;;;;;30.98;11.82;;;8.70;99.90;;;;;;5034765;28;20496;-76
2022/04/06 04:09:47;;;;;;;27.63;12.05;;;8.70;99.90;;;;;;5034272;28;20045;-76
2022/04/06 04:12:13;;;;;;;23.50;10.88;;;8.70;99.90;;;;;;5033922;28;20088;-77
2022/04/06 04:14:38;;;;;;;28.33;11.85;;;8.70;99.90;;;;;;5034299;28;20077;-76
2022/04/06 04:17:05;;;;;;;26.60;11.07;;;8.70;99.90;;;;;;5032977;28;20600;-76
2022/04/06 04:19:30;;;;;;;23.23;10.55;;;8.70;99.90;;;;;;5034162;28;20095;-77
2022/04/06 04:21:56;;;;;;;21.75;10.68;;;8.70;99.90;;;;;;5034207;28;20037;-76
2022/04/06 04:24:22;;;;;;;27.45;11.02;;;8.70;99.90;;;;;;5034093;28;20136;-76
2022/04/06 04:26:48;;;;;;;22.60;10.35;;;8.70;99.90;;;;;;5034277;28;20091;-76
2022/04/06 04:29:14;;;;;;;21.08;9.55;;;8.70;99.90;;;;;;5034043;28;20042;-76
2022/04/06 04:31:39;;;;;;;26.98;10.38;;;8.70;99.90;;;;;;5033518;28;20065;-76
2022/04/06 04:34:05;;;;;;;26.88;10.30;;;8.70;99.90;;;;;;5033969;28;20045;-77
2022/04/06 04:36:30;;;;;;;22.00;9.27;;;8.70;99.90;;;;;;5033920;28;20048;-76
2022/04/06 04:38:56;;;;;;;25.20;9.18;;;8.70;99.90;;;;;;5033954;28;20052;-76
2022/04/06 04:41:22;;;;;;;22.27;10.07;;;8.70;99.90;;;;;;5033863;28;20044;-76
2022/04/06 04:43:50;;;;;;;20.67;9.32;;;8.70;99.90;;;;;;5033839;28;20052;-76
2022/04/06 04:46:16;;;;;;;18.45;8.57;;;8.70;99.90;;;;;;5033700;28;20053;-78
2022/04/06 04:48:41;;;;;;;30.77;9.32;;;8.70;99.90;;;;;;5034011;28;20049;-77
2022/04/06 04:51:07;;;;;;;21.85;9.65;;;8.70;99.90;;;;;;5015766;28;20504;-75
2022/04/06 04:53:33;;;;;;;27.73;8.68;;;8.60;99.90;;;;;;5033695;28;20053;-76
2022/04/06 04:55:59;;;;;;;23.55;9.02;;;8.60;99.90;;;;;;5033688;28;20466;-76
2022/04/06 04:58:26;;;;;;;27.20;9.02;;;8.70;99.90;;;;;;5031665;28;20055;-75
2022/04/06 05:00:53;;;;;;;18.90;8.80;;;8.60;99.90;;;;;;5033380;28;20045;-76
2022/04/06 05:03:18;;;;;;;25.50;7.73;;;8.60;99.90;;;;;;5033604;28;20045;-76
2022/04/06 05:05:45;;;;;;;20.92;8.13;;;8.60;99.90;;;;;;5033581;28;20048;-76
2022/04/06 05:08:11;;;;;;;17.88;7.70;;;8.70;99.90;;;;;;5033350;28;20111;-75
2022/04/06 05:10:36;;;;;;;17.33;8.32;;;8.60;99.90;;;;;;5033406;28;20038;-76
2022/04/06 05:13:04;;;;;;;22.60;8.77;;;8.70;99.90;;;;;;5033550;28;20048;-76
2022/04/06 05:15:29;;;;;;;19.60;8.48;;;8.60;99.90;;;;;;5015774;28;20136;-76
2022/04/06 05:17:55;;;;;;;20.58;8.93;;;8.60;99.90;;;;;;5033463;28;20046;-75
2022/04/06 05:20:20;;;;;;;16.83;8.20;;;8.60;99.90;;;;;;5033425;28;20057;-76
2022/04/06 05:22:46;;;;;;;16.15;7.93;;;8.60;99.90;;;;;;5033639;28;20053;-77
2022/04/06 05:25:12;;;;;;;20.63;7.90;;;8.60;99.90;;;;;;5033439;28;20048;-76
2022/04/06 05:27:45;;;;;;;20.58;7.93;;;8.60;99.90;;;;;;5033455;28;20077;-76
2022/04/06 05:30:13;;;;;;;21.10;8.10;;;8.60;99.90;;;;;;5033057;28;20481;-74
2022/04/06 05:32:38;;;;;;;18.55;7.38;;;8.60;99.90;;;;;;5033347;28;20473;-75
2022/04/06 05:35:06;;;;;;;15.90;7.72;;;8.60;99.90;;;;;;5033405;28;20053;-75
2022/04/06 05:37:33;;;;;;;21.42;7.10;;;8.60;99.90;;;;;;5033251;28;20477;-75
2022/04/06 05:39:58;;;;;;;18.38;6.45;;;8.60;99.90;;;;;;5032869;28;20489;-75
2022/04/06 05:42:24;;;;;;;15.35;6.78;;;8.60;99.90;;;;;;5033226;28;20055;-75
2022/04/06 05:44:49;;;;;;;15.23;6.53;;;8.60;99.90;;;;;;5033176;28;20497;-76
2022/04/06 05:47:17;;;;;;;14.75;6.30;;;8.60;99.90;;;;;;5033366;28;20064;-76
2022/04/06 05:49:43;;;;;;;14.75;6.22;;;8.60;99.90;;;;;;5033103;28;20041;-75
2022/04/06 05:52:09;;;;;;;16.33;5.78;;;8.60;99.90;;;;;;5032308;28;20132;-75
2022/04/06 05:54:36;;;;;;;15.48;5.65;;;8.70;99.90;;;;;;5015689;28;20057;-75
2022/04/06 05:57:02;;;;;;;19.08;5.75;;;8.70;99.90;;;;;;5033102;28;20124;-76
2022/04/06 05:59:27;;;;;;;18.38;5.72;;;8.60;99.90;;;;;;5033061;28;20124;-75
2022/04/06 06:01:53;;;;;;;17.00;5.32;;;8.70;99.90;;;;;;5033031;28;20107;-74
2022/04/06 06:04:18;;;;;;;10.85;4.93;;;8.70;99.90;;;;;;5032658;28;20050;-75
2022/04/06 06:06:44;;;;;;;13.82;5.05;;;8.80;99.90;;;;;;5032972;28;20124;-74
2022/04/06 06:09:10;;;;;;;15.55;5.65;;;8.70;99.90;;;;;;5032956;28;20481;-75
2022/04/06 06:11:36;;;;;;;10.27;4.30;;;8.70;99.90;;;;;;5035832;28;20045;-76
2022/04/06 06:14:02;;;;;;;12.73;4.28;;;8.80;99.90;;;;;;5036468;28;20049;-75
2022/04/06 06:16:28;;;;;;;15.93;4.72;;;8.80;99.90;;;;;;5036533;28;20065;-74
2022/04/06 06:18:55;;;;;;;10.73;3.93;;;8.80;99.90;;;;;;5036419;28;20100;-74
2022/04/06 06:21:21;;;;;;;12.25;3.70;;;8.80;99.90;;;;;;5036298;28;20045;-76
2022/04/06 06:23:47;;;;;;;14.40;4.47;;;8.80;99.90;;;;;;5036321;28;20062;-77
2022/04/06 06:26:12;;;;;;;11.55;3.95;;;8.80;99.90;;;;;;5035065;28;20099;-75
2022/04/06 06:28:39;;;;;;;8.00;3.25;;;8.80;99.90;;;;;;5034809;28;20042;-74
2022/04/06 06:31:05;;;;;;;10.50;3.38;;;8.80;99.90;;;;;;5034402;28;20128;-76
2022/04/06 06:33:30;;;;;;;8.68;3.60;;;8.80;99.90;;;;;;5018645;28;20096;-76
2022/04/06 06:35:56;;;;;;;11.77;3.05;;;8.80;99.90;;;;;;5036304;28;20050;-76
2022/04/06 06:38:22;;;;;;;11.75;3.80;;;8.90;99.90;;;;;;5035956;28;20129;-76
2022/04/06 06:40:48;;;;;;;10.32;2.70;;;8.80;99.90;;;;;;5035845;28;20485;-76
2022/04/06 06:43:17;;;;;;;9.25;2.83;;;8.90;99.90;;;;;;5035964;28;20473;-75
2022/04/06 06:45:42;;;;;;;9.23;3.53;;;8.90;99.90;;;;;;5036301;28;20049;-76
2022/04/06 06:48:08;;;;;;;7.32;2.70;;;8.90;99.90;;;;;;5035633;28;20048;-76
2022/04/06 06:50:34;;;;;;;7.20;2.45;;;8.90;99.90;;;;;;5035678;28;20244;-76
2022/04/06 06:52:59;;;;;;;10.57;2.75;;;8.90;99.90;;;;;;5035825;28;20048;-76
2022/04/06 06:55:25;;;;;;;7.25;2.35;;;9.00;99.90;;;;;;5035804;28;20052;-76
2022/04/06 06:57:51;;;;;;;6.63;2.67;;;9.00;99.90;;;;;;5035679;28;20537;-76
2022/04/06 07:00:17;;;;;;;12.88;2.58;;;8.90;99.90;;;;;;5035656;28;20061;-76
2022/04/06 07:02:42;;;;;;;11.00;2.60;;;8.90;99.90;;;;;;5035564;28;20045;-76
2022/04/06 07:05:09;;;;;;;8.90;2.72;;;8.90;99.90;;;;;;5035523;28;20124;-76
2022/04/06 07:07:55;;;;;;;7.60;2.67;;;8.80;99.90;;;;;;5035534;28;20049;-76
2022/04/06 07:10:22;;;;;;;6.28;2.20;;;8.80;99.90;;;;;;5035306;28;20038;-76
2022/04/06 07:12:49;;;;;;;12.55;2.97;;;8.80;99.90;;;;;;5035325;28;20046;-76
2022/04/06 07:15:15;;;;;;;;;;;8.80;99.90;;;;;;5035790;28;20037;-76
2022/04/06 07:17:41;;;;;;;9.18;2.65;;;8.80;99.90;;;;;;5035722;28;19944;-76
2022/04/06 07:20:07;;;;;;;8.55;2.75;;;8.80;99.90;;;;;;5035296;28;20532;-76
2022/04/06 07:22:33;;;;;;;8.85;2.58;;;8.90;99.90;;;;;;5034477;28;20389;-76
2022/04/06 07:24:58;;;;;;;12.07;2.97;;;8.80;99.90;;;;;;5035134;28;20049;-76
2022/04/06 07:27:24;;;;;;;8.32;2.55;;;8.80;99.90;;;;;;5035088;28;20496;-76
2022/04/06 07:29:51;;;;;;;7.68;3.05;;;8.90;99.90;;;;;;5035415;28;20474;-76
2022/04/06 07:32:17;;;;;;;8.13;3.30;;;8.90;99.90;;;;;;5035122;28;20513;-76
2022/04/06 07:34:43;;;;;;;5.38;2.80;;;8.90;99.90;;;;;;5034911;28;20088;-76
2022/04/06 07:37:09;;;;;;;7.45;2.88;;;8.90;99.90;;;;;;5034767;28;20521;-76
2022/04/06 07:39:35;;;;;;;10.32;3.05;;;8.90;99.90;;;;;;5034551;28;20049;-75
2022/04/06 07:42:01;;;;;;;12.30;3.53;;;8.90;99.90;;;;;;5034776;28;20041;-76
2022/04/06 07:44:27;;;;;;;7.20;2.97;;;9.00;99.90;;;;;;5034785;28;20046;-77
2022/04/06 07:46:52;;;;;;;11.30;3.53;;;9.00;99.90;;;;;;5034781;28;20045;-77
2022/04/06 07:49:18;;;;;;;11.45;4.15;;;9.00;99.90;;;;;;5034890;28;20046;-76
2022/04/06 07:51:45;;;;;;;11.93;4.00;;;9.00;99.90;;;;;;5034651;28;20099;-76
2022/04/06 07:54:11;;;;;;;;;;;9.00;99.90;;;;;;5034018;28;20055;-76
2022/04/06 07:56:37;;;;;;;12.90;3.78;;;9.00;99.90;;;;;;5034423;28;19920;-76
2022/04/06 07:59:03;;;;;;;11.20;4.38;;;8.90;99.90;;;;;;5034914;28;20057;-76
2022/04/06 08:01:29;;;;;;;7.90;4.03;;;8.90;99.90;;;;;;5034539;28;20045;-77
2022/04/06 08:03:55;;;;;;;14.38;5.00;;;8.90;99.90;;;;;;5034763;28;20048;-77
2022/04/06 08:06:23;;;;;;;10.50;4.47;;;8.90;99.90;;;;;;5034347;28;20045;-76
2022/04/06 08:08:51;;;;;;;7.90;4.88;;;8.90;99.90;;;;;;5034363;28;20050;-76
2022/04/06 08:11:18;;;;;;;13.00;5.10;;;8.90;99.90;;;;;;5034146;28;20511;-76
2022/04/06 08:13:43;;;;;;;13.63;4.80;;;8.80;99.90;;;;;;5033937;28;20053;-76
2022/04/06 08:16:09;;;;;;;10.38;5.00;;;8.90;99.90;;;;;;5034167;28;20046;-76
2022/04/06 08:18:35;;;;;;;13.98;5.13;;;8.90;99.90;;;;;;5034218;28;20087;-76
2022/04/06 08:21:01;;;;;;;17.05;5.53;;;8.90;99.90;;;;;;5034134;28;20071;-75
2022/04/06 08:23:27;;;;;;;16.92;6.68;;;9.00;99.90;;;;;;5034218;28;20053;-76
2022/04/06 08:25:53;;;;;;;13.73;6.03;;;9.10;99.90;;;;;;5034026;28;20037;-76
2022/04/06 08:28:19;;;;;;;14.73;6.77;;;9.10;99.90;;;;;;5034004;28;20050;-76
2022/04/06 08:30:47;;;;;;;14.15;6.03;;;9.10;99.90;;;;;;5033889;28;20118;-74
2022/04/06 08:33:13;;;;;;;19.65;6.88;;;9.20;99.90;;;;;;5015881;28;20052;-76
2022/04/06 08:35:40;;;;;;;16.30;6.20;;;9.10;99.90;;;;;;5033790;28;20057;-76
2022/04/06 08:38:07;;;;;;;10.93;6.05;;;9.20;99.90;;;;;;5033894;28;20045;-76
2022/04/06 08:40:33;;;;;;;20.38;6.85;;;9.20;99.90;;;;;;5033778;28;20045;-76
2022/04/06 08:43:00;;;;;;;14.23;6.65;;;9.20;99.90;;;;;;5033798;28;20055;-75
2022/04/06 08:45:27;;;;;;;14.20;6.63;;;9.20;99.90;;;;;;5033814;28;20148;-75
2022/04/06 08:47:53;;;;;;;12.90;6.25;;;9.30;99.90;;;;;;5033423;28;20481;-76
2022/04/06 08:50:20;;;;;;;11.13;6.32;;;9.30;99.90;;;;;;5033663;28;20083;-74
2022/04/06 08:52:47;;;;;;;12.23;6.35;;;9.40;99.90;;;;;;5033680;28;20541;-76
2022/04/06 08:55:15;;;;;;;;;;;9.60;99.90;;;;;;5033894;28;20481;-76
2022/04/06 08:57:41;;;;;;;11.43;5.68;;;9.70;99.90;;;;;;5033864;28;20427;-77
2022/04/06 09:00:07;;;;;;;10.18;5.40;;;9.90;99.90;;;;;;5033634;28;20477;-76
2022/04/06 09:02:33;;;;;;;14.27;5.90;;;10.00;99.90;;;;;;5033908;28;20057;-76
2022/04/06 09:05:02;;;;;;;18.60;5.47;;;10.00;99.90;;;;;;5033622;28;20211;-76
2022/04/06 09:07:28;;;;;;;9.35;5.55;;;10.00;99.90;;;;;;5031384;28;20056;-77
2022/04/06 09:09:55;;;;;;;11.23;5.20;;;9.90;99.90;;;;;;5033198;28;20045;-77
2022/04/06 09:12:24;;;;;;;13.32;4.68;;;9.90;99.90;;;;;;5033236;28;20413;-77
2022/04/06 09:15:06;;;;;;;10.82;4.65;;;9.90;99.90;;;;;;5033273;28;20401;-77
2022/04/06 09:17:46;;;;;;;9.68;3.85;;;9.80;99.90;;;;;;5033285;28;20053;-77
2022/04/06 09:20:15;;;;;;;9.88;4.22;;;9.80;99.90;;;;;;5015490;28;20049;-77
2022/04/06 09:22:42;;;;;;;8.15;3.78;;;9.80;99.90;;;;;;5033195;28;20094;-76
2022/04/06 09:25:09;;;;;;;9.55;4.15;;;9.80;99.90;;;;;;5033411;28;20060;-75
2022/04/06 09:27:38;;;;;;;14.82;4.18;;;9.80;99.90;;;;;;5032985;28;20049;-79
2022/04/06 09:30:05;;;;;;;8.00;3.38;;;9.70;99.90;;;;;;5032939;28;20056;-76
2022/04/06 09:32:31;;;;;;;16.13;4.78;;;9.80;99.90;;;;;;5033002;28;20053;-76
2022/04/06 09:34:57;;;;;;;11.63;4.03;;;9.70;99.90;;;;;;5032843;28;20129;-77
2022/04/06 09:37:27;;;;;;;12.10;3.92;;;9.70;99.90;;;;;;5033064;28;20052;-77
2022/04/06 09:39:56;;;;;;;9.52;3.53;;;9.70;99.90;;;;;;5032981;28;20046;-77
2022/04/06 09:42:28;;;;;;;11.18;3.22;;;9.70;99.90;;;;;;5031721;28;20053;-77
2022/04/06 09:47:52;;;;;;;8.27;3.03;;;9.80;99.90;;;;;;5036790;28;20049;-77
2022/04/06 09:50:23;;;;;;;7.82;3.45;;;9.90;99.90;;;;;;5036525;28;20512;-76
2022/04/06 09:52:52;;;;;;;11.05;3.30;;;9.90;99.90;;;;;;5036500;28;20049;-77
2022/04/06 09:55:19;;;;;;;10.25;3.03;;;9.90;99.90;;;;;;5036518;28;20063;-77
2022/04/06 09:57:51;;;;;;;7.40;2.80;;;9.90;99.90;;;;;;5036351;28;20054;-75
2022/04/06 10:00:24;;;;;;;10.40;3.13;;;9.90;99.90;;;;;;5037035;28;20049;-77
2022/04/06 10:03:04;;;;;;;4.88;2.90;;;10.20;99.90;;;;;;5036841;28;20081;-78
2022/04/06 10:05:34;;;;;;;5.68;3.40;;;9.80;99.90;;;;;;5035414;28;20053;-78
2022/04/06 10:08:04;;;;;;;11.15;3.70;;;9.80;99.90;;;;;;5036747;28;20049;-76
2022/04/06 10:10:38;;;;;;;7.72;3.45;;;9.80;99.90;;;;;;5019027;28;20559;-77
2022/04/06 10:13:04;;;;;;;6.13;3.50;;;9.80;99.90;;;;;;5036514;28;20041;-77
2022/04/06 10:15:31;;;;;;;11.40;3.78;;;9.80;99.90;;;;;;5036196;28;20099;-77
2022/04/06 10:17:56;;;;;;;8.45;3.78;;;9.80;99.90;;;;;;5036430;28;20379;-75
2022/04/06 10:20:50;;;;;;;7.53;4.03;;;9.80;99.90;;;;;;5036321;28;20088;-74
2022/04/06 10:23:39;;;;;;;9.50;3.50;;;9.80;99.90;;;;;;5036178;28;20053;-75
2022/04/06 10:26:15;;;;;;;8.55;3.83;;;9.80;99.90;;;;;;5035989;28;20130;-78
2022/04/06 10:28:44;;;;;;;5.50;4.13;;;9.80;99.90;;;;;;5035909;28;20045;-76
2022/04/06 10:31:19;;;;;;;7.03;3.83;;;9.90;99.90;;;;;;5035537;28;20061;-77
2022/04/06 10:33:46;;;;;;;10.10;3.85;;;9.90;99.90;;;;;;5035836;28;20049;-77
2022/04/06 10:36:23;;;;;;;;;;;9.90;99.90;;;;;;5036525;28;20038;-77
2022/04/06 10:39:07;;;;;;;10.65;3.75;;;9.90;99.90;;;;;;5035928;28;19925;-75
2022/04/06 10:41:41;;;;;;;9.05;4.47;;;9.90;99.90;;;;;;5035794;28;20436;-76
2022/04/06 10:44:36;;;;;;;10.82;4.15;;;9.90;99.90;;;;;;5035806;28;20049;-75
2022/04/06 10:47:07;;;;;;;11.02;4.63;;;10.00;99.90;;;;;;5035802;28;20045;-75
2022/04/06 10:49:32;;;;;;;9.60;4.05;;;10.00;99.90;;;;;;5035514;28;20045;-74
2022/04/06 10:51:59;;;;;;;11.13;4.00;;;10.10;99.90;;;;;;5035441;28;20064;-75
2022/04/06 10:54:27;;;;;;;11.10;4.35;;;10.10;99.90;;;;;;5035178;28;20171;-75
2022/04/06 10:56:54;;;;;;;8.43;4.43;;;10.10;99.90;;;;;;5035402;28;20050;-75
2022/04/06 10:59:20;;;;;;;10.48;4.45;;;10.10;99.90;;;;;;5035501;28;20049;-75
2022/04/06 11:01:48;;;;;;;6.95;4.32;;;10.00;99.90;;;;;;5035474;28;20053;-73
2022/04/06 11:04:22;;;;;;;9.75;5.03;;;10.10;99.90;;;;;;5035446;28;20049;-73
2022/04/06 11:06:56;;;;;;;7.72;4.82;;;10.00;99.90;;;;;;5034810;28;20052;-74
2022/04/06 11:12:24;;;;;;;11.77;4.60;;;10.00;99.90;;;;;;5035152;28;20140;-74
2022/04/06 11:15:10;;;;;;;10.55;5.10;;;9.90;99.90;;;;;;5035281;28;20059;-73
2022/04/06 11:17:42;;;;;;;13.10;5.03;;;9.90;99.90;;;;;;5035019;28;20061;-74
2022/04/06 11:20:21;;;;;;;9.10;5.30;;;9.90;99.90;;;;;;5035070;28;20421;-75
2022/04/06 11:22:46;;;;;;;7.88;4.72;;;9.90;99.90;;;;;;5034931;28;20077;-74
2022/04/06 11:25:17;;;;;;;9.70;4.97;;;9.90;99.90;;;;;;5034804;28;20551;-74
2022/04/06 11:27:45;;;;;;;8.85;5.32;;;9.80;99.90;;;;;;5034431;28;20045;-74
2022/04/06 11:30:14;;;;;;;16.65;5.50;;;9.80;99.90;;;;;;5034732;28;20140;-74
2022/04/06 11:32:54;;;;;;;11.57;5.28;;;9.80;99.90;;;;;;5034972;28;20064;-74
2022/04/06 11:35:20;;;;;;;10.23;5.40;;;9.80;99.90;;;;;;5035020;28;20067;-74
2022/04/06 11:37:47;;;;;;;15.18;6.30;;;9.80;99.90;;;;;;5034546;28;20128;-74
2022/04/06 11:40:15;;;;;;;12.50;5.47;;;9.70;99.90;;;;;;5034418;28;20064;-74
2022/04/06 11:42:41;;;;;;;12.50;5.82;;;9.70;99.90;;;;;;5034719;28;20049;-74
2022/04/06 11:45:09;;;;;;;11.55;5.30;;;9.70;99.90;;;;;;5034633;28;20045;-74
2022/04/06 11:47:36;;;;;;;12.45;6.47;;;9.80;99.90;;;;;;5034629;28;20080;-74
2022/04/06 11:50:12;;;;;;;10.25;6.47;;;9.80;99.90;;;;;;5034655;28;20478;-75
2022/04/06 11:52:41;;;;;;;10.23;5.20;;;9.80;99.90;;;;;;5034183;28;20042;-74
2022/04/06 11:55:09;;;;;;;11.52;5.82;;;9.90;99.90;;;;;;5033096;28;20125;-75
2022/04/06 11:57:37;;;;;;;12.10;6.50;;;10.00;99.90;;;;;;5048702;28;20056;-75
2022/04/06 12:00:05;;;;;;;7.88;5.35;;;10.10;99.90;;;;;;5054260;28;20041;-75
2022/04/06 12:02:54;;;;;;;10.35;5.53;;;10.10;99.90;;;;;;5036311;28;20052;-75
2022/04/06 12:05:21;;;;;;;12.18;5.60;;;10.20;99.90;;;;;;5053460;28;20049;-76
2022/04/06 12:07:47;;;;;;;10.35;5.72;;;10.20;99.90;;;;;;5053578;28;20081;-75
2022/04/06 12:10:14;;;;;;;10.47;5.30;;;10.30;99.90;;;;;;5053984;28;20086;-73
2022/04/06 12:12:41;;;;;;;9.05;4.93;;;10.40;99.90;;;;;;5053832;28;20694;-74
2022/04/06 12:15:08;;;;;;;7.45;5.55;;;10.30;99.90;;;;;;5053767;28;20044;-75
2022/04/06 12:17:35;;;;;;;8.45;5.13;;;10.30;99.90;;;;;;5053925;28;20076;-74
2022/04/06 12:20:19;;;;;;;8.98;5.72;;;10.40;99.90;;;;;;5053497;28;20393;-76
2022/04/06 12:22:45;;;;;;;8.38;5.55;;;10.50;99.90;;;;;;5053917;28;20101;-76
2022/04/06 12:25:47;;;;;;;9.50;5.75;;;10.70;99.90;;;;;;5053649;28;20049;-74
2022/04/06 12:28:14;;;;;;;8.80;5.30;;;10.70;99.90;;;;;;4972707;28;20049;-74
2022/04/06 12:31:03;;;;;;;7.78;5.57;;;10.80;99.90;;;;;;5037811;28;20053;-74
2022/04/06 12:33:36;;;;;;;12.40;6.82;;;10.90;99.90;;;;;;5053805;28;20106;-75
2022/04/06 12:36:30;;;;;;;11.05;6.78;;;10.90;99.90;;;;;;5053468;28;20439;-75
2022/04/06 12:39:14;;;;;;;10.32;6.45;;;10.90;99.90;;;;;;5050928;28;20140;-76
2022/04/06 12:42:06;;;;;;;8.68;5.72;;;11.00;99.90;;;;;;5053513;28;20458;-76
2022/04/06 12:44:33;;;;;;;10.60;5.90;;;10.90;99.90;;;;;;5053534;28;20052;-76
2022/04/06 12:46:59;;;;;;;;;;;10.80;99.90;;;;;;5053576;28;20083;-76
2022/04/06 12:49:31;;;;;;;7.85;5.85;;;10.70;99.90;;;;;;5035785;28;19921;-76
2022/04/06 12:52:06;;;;;;;11.43;6.25;;;10.60;99.90;;;;;;5053576;28;20396;-75
2022/04/06 12:54:33;;;;;;;9.75;5.75;;;10.60;99.90;;;;;;5053182;28;20056;-77
2022/04/06 12:57:13;;;;;;;8.20;5.35;;;10.60;99.90;;;;;;5053401;28;20045;-76
2022/04/06 12:59:56;;;;;;;10.25;5.82;;;10.60;99.90;;;;;;5053168;28;20041;-76
2022/04/06 13:02:28;;;;;;;9.95;5.30;;;10.50;99.90;;;;;;5053456;28;20041;-77